Temur Kvaratskhelia

Olheiro-Chefe - Shukura
13 Fev 2028
Domingo
Processo

Personalidade

Adaptabilidade (14) Ambição (10) Controvérsia (7) Lealdade (19) Pressão (14) Profissionalismo (13) Espírito Esportivo (19) Temperamento (11)

Perfil

Estilo de Treinamento Democrático
Licença Continental Pro
Determinação 7
Gestão de Pessoas 6
Motivação 7
Disciplina 8
Satisfação no Trabalho
100%
Fadiga
0%
Função Olheiro-Chefe
Salário 29.9K p/s
Contrato 14.03.2030

Desempenho

Comportamento Bom
Eficácia do Treinamento
26%
Desenvolvimento do Jogador
35%
Prevenção de Lesões
15%
Implementação Tática
15%

Eventos Recentes

Avaliou um jogador agora
Participou de uma reunião de recrutamento agora
Participou de uma reunião de recrutamento agora
Recomendou um alvo de transferência agora
Avaliou um jogador agora
Avaliou um jogador agora
Participou de uma reunião de recrutamento 7d atrás
Recomendou um alvo de transferência 7d atrás

Monitorando agora

235
Jogador Clube Status Habilidade Confiança Observado Última observação Último voto
Alejandro Viniegra Botev Vratsa Ativo 83 / 103 40% 2 12.02.2028 -
Yegor Golenkov Rostov Ativo 134 / 111 40% 2 12.02.2028 -
Carlos Fernández Oviedo Ativo 138 / 133 40% 2 12.02.2028 -
Kamran Aliev SKA Khabarovsk Ativo 92 / 104 40% 9 10.02.2028 -
Gustavo Viera Cerro Largo Ativo 101 / 89 40% 2 09.02.2028 -
Vladislav Sarveli Nizhniy Novgorod Ativo 101 / 113 40% 1 09.02.2028 -
Wilman Moreira Irkutsk Ativo 84 / 88 40% 1 09.02.2028 -
Davit Kvaratskhelia Zugdidi Ativo 81 / 100 40% 2 08.02.2028 -
Calum Kavanagh Oldham Athletic Ativo 101 / 113 40% 1 08.02.2028 -
Bayéré Junior Loué Javor-Matis Ativo 106 / 94 40% 1 08.02.2028 -
Agustín Navarro Atenas Ativo 93 / 84 40% 1 07.02.2028 -
Danny Butterworth Accrington Stanley Ativo 109 / 99 40% 1 07.02.2028 -
Emanuele Schimmenti Potenza Ativo 119 / 121 40% 1 07.02.2028 -
Zurab Museliani Dila Ativo 100 / 86 40% 5 17.01.2028 -
Vyacheslav Grulev Nizhniy Novgorod Ativo 105 / 101 40% 1 17.01.2028 -
Alexander Gugushvili Dinamo Batumi Ativo 57 / 77 62% 1 02.01.2028 Aprovar
Favio Cabral Mitre Ativo 126 / 121 40% 1 30.12.2027 -
Abubakar Bonni Enyimba Ativo 77 / 89 40% 8 29.12.2027 -
Luciano Riveros San Martín SJ Ativo 119 / 108 40% 1 29.12.2027 -
Augustine Nwaorisa Enyimba Ativo 104 / 99 40% 8 28.12.2027 -
Lucas Pedraza Defensores Unidos Ativo 103 / 115 40% 1 28.12.2027 -
Gianluca Pugliese Güemes Ativo 118 / 110 40% 1 27.12.2027 -
Mauro Valiente Estudiantes Ativo 107 / 106 40% 1 27.12.2027 -
Sunday Megwo Abia Warriors Ativo 95 / 89 40% 5 26.12.2027 -
Otar Parulava Dila Ativo 109 / 103 40% 1 25.12.2027 -
Antonio Napolitano Agropecuario Argentino Ativo 116 / 134 40% 1 25.12.2027 -
Lautaro Gordillo Colegiales Ativo 127 / 121 40% 1 25.12.2027 -
Daniel Barrea Godoy Cruz Ativo 125 / 130 40% 1 25.12.2027 -
Alan Bonansea Colón Negociando 124 / 127 40% 1 24.12.2027 -
Sergio Riffo Kolkheti Ativo 103 / 83 40% 6 23.12.2027 -
Santiago Valenzuela Chaco For Ever Ativo 105 / 127 40% 1 22.12.2027 -
Carlos Ramírez Zulia Ativo 105 / 113 40% 2 21.12.2027 -
Dylan Cabral Arsenal Ativo 111 / 89 40% 1 21.12.2027 -
Ezekiel Edidiong Enyimba Ativo 102 / 106 40% 3 20.12.2027 -
Joseph Atule Barau Ativo 83 / 76 40% 2 18.12.2027 -
Marco Miori Alvarado Ativo 101 / 114 40% 1 18.12.2027 -
Sagir Arce Saburtalo Ativo 99 / 111 40% 7 17.12.2027 -
Jhoao Rodríguez Deportes Quindio Ativo 119 / 129 40% 7 17.12.2027 -
Camilo Machado Madryn Ativo 115 / 95 40% 6 17.12.2027 -
Juan David Rueda Alianza Petrolera Ativo 121 / 100 40% 4 17.12.2027 -
Santiago Vera Almirante Brown Ativo 111 / 113 40% 1 15.12.2027 -
Tornike Mikautadze Tskhinvali Ativo 104 / 93 40% 6 14.12.2027 -
Davit Gotsiridze Kolkheti Ativo 79 / 77 40% 4 11.12.2027 -
Tosin Olawale El-Kanemi Warriors Ativo 86 / 87 40% 4 11.12.2027 -
Santiago Apa All Boys Ativo 124 / 105 40% 7 10.12.2027 -
Adam Mustapha Shooting Stars Ativo 96 / 89 40% 2 10.12.2027 -
Owen Falconis Cerrito Ativo 107 / 111 40% 2 09.12.2027 -
Matías Samaniego Talleres Ativo 99 / 88 40% 1 06.12.2027 -
Luca Franco Arsenal Ativo 115 / 113 40% 4 04.12.2027 -
Kirill Tsepenkov Dnepr Mogilev Ativo 102 / 99 40% 1 29.11.2027 -
Leonel Pollacchi San Telmo Ativo 125 / 128 40% 2 28.11.2027 -
Beka Dartsmelia Saburtalo Ativo 100 / 99 40% 2 28.11.2027 -
Giorgi Kveladze Samtredia Ativo 89 / 93 40% 1 27.11.2027 -
Joel Ezra Enyimba Ativo 88 / 80 40% 1 25.11.2027 -
Elías Peralta Lokomotivi Ativo 89 / 111 40% 4 22.11.2027 -
Idris Ajiya Nasarawa United Ativo 100 / 89 40% 4 20.11.2027 -
Paulo Vitor Dinamo Batumi Ativo 107 / 107 40% 1 19.11.2027 -
Dato Mchedlidze Tskhinvali Ativo 108 / 116 52% 4 / 1m 14.11.2027 -
Lautaro Núñez Alvarado Ativo 89 / 85 40% 2 14.11.2027 -
Johan Campaña Patriotas Ativo 105 / 107 40% 1 14.11.2027 -
César Salazar Mineros de Guayana Ativo 104 / 93 40% 2 10.11.2027 -
Agustín Dávila Cerro Largo Ativo 100 / 87 40% 1 09.11.2027 -
Gabriel Rincon Atletico Venezuela Ativo 95 / 84 40% 2 08.11.2027 -
Joël Kabongo Lokomotivi Ativo 106 / 90 40% 2 08.11.2027 -
Franco Bustamante Almagro Ativo 100 / 111 40% 1 07.11.2027 -
Matías Rapetti Defensores Unidos Ativo 117 / 94 40% 1 05.11.2027 -
Chimobi Igwilo Rangers International Ativo 99 / 104 40% 1 03.11.2027 -
Julen Cordero Samtredia Ativo 90 / 84 40% 1 01.11.2027 -
Benedek Simon Sioni Ativo 86 / 85 40% 1 28.10.2027 -
Elmer Arunta Bendel Insurance Ativo 86 / 80 40% 4 26.10.2027 -
Cristian Rivas Bogota Ativo 99 / 93 40% 3 25.10.2027 -
Aliyu Sugau Barau Ativo 95 / 85 40% 1 24.10.2027 -
Mateo Stamatov Torpedo Kutaisi Ativo 103 / 114 40% 1 24.10.2027 -
Lorenzo Monti Temperley Ativo 110 / 91 40% 1 23.10.2027 -
Olawale Emmanuel Niger Tornadoes Ativo 93 / 100 40% 1 17.10.2027 -
Alexey Antilevskiy Slavia Mozyr Ativo 102 / 91 40% 1 10.10.2027 -
Didier Bueno Jaguares Ativo 101 / 107 40% 1 09.10.2027 -
Sandro Altunashvili Dinamo Batumi Ativo 105 / 100 40% 1 09.10.2027 -
Yeferson Rodallega Envigado Ativo 116 / 113 40% 1 07.10.2027 -
Matej Šimić Torpedo Kutaisi Ativo 94 / 87 40% 1 05.10.2027 -
Usman Fahad Kano Pillars Ativo 81 / 74 40% 1 05.10.2027 -
Artem Mylchenko Dinamo Batumi Ativo 113 / 99 40% 1 03.10.2027 -
Tornike Arveladze Dinamo Batumi Ativo 92 / 99 40% 3 02.10.2027 -
Youssef Dalouzi Renaissance Ativo 98 / 103 40% 3 28.09.2027 -
Santiago Guzmán Wanderers Ativo 109 / 95 40% 1 28.09.2027 -
Johnmark Atule Shooting Stars Ativo 89 / 109 40% 2 23.09.2027 -
Andrés Tello Deportes Quindio Ativo 111 / 91 40% 1 20.09.2027 -
Yusuff Adewale US Bougouba Ativo 76 / 88 40% 1 18.09.2027 -
Tamaz Makatsaria Samtredia Ativo 91 / 97 40% 1 17.09.2027 -
José Rondón Zulia Ativo 95 / 81 40% 1 15.09.2027 -
Sebastián Parada San Luis Ativo 102 / 107 40% 1 31.08.2027 -
Elliott List Northampton Town Ativo 96 / 93 40% 1 03.08.2027 -
Tobías Cervera Gimnasia y Esgrima Ativo 109 / 142 40% 1 03.08.2027 -
Bashiru Usman Niger Tornadoes Ativo 76 / 58 40% 1 26.07.2027 -
Vadym Sydun Epicentr Ativo 96 / 82 40% 1 26.07.2027 -
Dion Pereira Crawley Town Ativo 93 / 73 40% 1 14.06.2027 -
Ethan Bristow Tranmere Rovers Ativo 108 / 76 40% 2 01.06.2027 -
Magomed Nasibov Pobeda Ativo 79 / 71 40% 7 30.05.2027 -
Lorenzo Maasland Casarano Ativo 85 / 113 40% 1 29.05.2027 -
Kirill Danilin Ural Ativo 109 / 118 40% 2 28.05.2027 -
Zech Medley Fleetwood Town Ativo 95 / 117 40% 1 28.05.2027 -
Ruslan Apekov Torpedo Moscow Ativo 106 / 92 40% 4 26.05.2027 -
Denis Mironov Shinnik Ativo 81 / 92 40% 1 25.05.2027 -
André Miranda Porto Ativo 107 / 86 40% 1 25.05.2027 -
Alexandr Saplinov Volga Ativo 92 / 87 40% 2 23.05.2027 -
Jakub Bednarczyk Gornik Leczna Ativo 109 / 105 40% 3 22.05.2027 -
Daniil Penchikov Arsenal Tula Ativo 100 / 80 40% 1 22.05.2027 -
Kane Drummond Oldham Athletic Ativo 107 / 104 40% 3 18.05.2027 -
Artem Stepanovich Sevastopol Ativo 82 / 72 40% 2 17.05.2027 -
Aleksej Golijanin Sokol Ativo 93 / 90 40% 4 12.05.2027 -
Danil Akhatov Ufa Ativo 79 / 105 40% 5 11.05.2027 -
Thom van Bergen Groningen Ativo 118 / 131 40% 2 11.05.2027 -
Ítalo Ural Ativo 114 / 107 40% 1 10.05.2027 -
Daniil Agureev Amkar Ativo 88 / 97 40% 5 08.05.2027 -
Stanislav Biblyk Chaika Ativo 93 / 106 40% 5 08.05.2027 -
Sergey Gaiduk Salyut Ativo 66 / 102 40% 1 06.05.2027 -
Víctor Guzmán Sporting CP Ativo 84 / 88 40% 2 01.05.2027 -
Gevork Sarkisyan Saturn Ativo 79 / 74 40% 1 01.05.2027 -
Martin Sekulić Ural Ativo 112 / 91 67% 8 30.04.2027 Observar
Rüstəm Əhmədzadə Sumgayit Ativo 104 / 123 40% 1 29.04.2027 -
Igor Shkolik SKA Khabarovsk Ativo 97 / 107 40% 1 29.04.2027 -
Darío Ramírez Real Sociedad Ativo 79 / 98 40% 2 28.04.2027 -
Gabriel Monjes Hamrun Spartans Ativo 101 / 98 40% 2 26.04.2027 -
Anton Betyuzhnov Dinamo Vologda Ativo 93 / 77 40% 3 24.04.2027 -
Ilja Safronov Rotor Ativo 91 / 80 40% 5 23.04.2027 -
Carlos Zepeda Zvezda Ativo 67 / 58 40% 2 21.04.2027 -
Giuseppe D'Agostino Giugliano Ativo 84 / 99 40% 1 14.04.2027 -
Daniil Kondrakov KDV Tomsk Ativo 107 / 98 40% 1 14.04.2027 -
Romelu Meunier KV Oostende Ativo 88 / 76 40% 1 12.04.2027 -
Đorđe Pantelić Spartak Kostroma Ativo 92 / 116 40% 2 09.04.2027 -
Slobodan Tedić Akron Ativo 103 / 102 40% 1 09.04.2027 -
Nuri Abdokov Fakel Ativo 89 / 113 40% 1 07.04.2027 -
Pablo García Gijón Ativo 106 / 117 40% 1 06.04.2027 -
Dmitry Kuptsov Spartak Tambov Ativo 70 / 74 40% 2 03.04.2027 -
Nikita Pogrebnev Ryazan Ativo 87 / 83 40% 1 03.04.2027 -
Ekain Orobengoa Real Sociedad Ativo 107 / 97 40% 5 31.03.2027 -
Darko Todorović Fakel Ativo 100 / 113 40% 1 31.03.2027 -
Evgeny Voronin Volga Ativo 97 / 107 40% 1 30.03.2027 -
Vasily Cherov Ufa Ativo 91 / 92 40% 1 30.03.2027 -
Iker Pozo Rodina Ativo 124 / 99 40% 2 27.03.2027 -
Mikhail Gainov Dinamo Stavropol Ativo 73 / 88 40% 1 15.03.2027 -
Sergey Gribov Dinamo Bryansk Ativo 88 / 107 40% 1 11.03.2027 -
Leo Goglichidze Rodina Ativo 115 / 97 40% 1 10.03.2027 -
Dawid Polkowski Feniks Ativo 77 / 81 40% 1 07.03.2027 -
Garrik Levin Chelyabinsk Ativo 98 / 102 40% 1 05.03.2027 -
Miloš Brnović Arsenal Tula Ativo 128 / 115 40% 1 05.03.2027 -
Mevran Ablak Angusht Ativo 64 / 72 40% 2 01.03.2027 -
Rashid Magomedov Neftekhimik Ativo 79 / 107 40% 2 28.02.2027 -
Kirill Cheburakov Rostov Ativo 67 / 58 40% 1 21.02.2027 -
Yeangel Montero Naxxar Lions Ativo 98 / 114 40% 2 12.02.2027 -
Miloš Jovičić Zabbar St. Patrick Ativo 94 / 116 40% 3 10.02.2027 -
Patrick Schmidt Tarxien Rainbows Ativo 93 / 112 40% 2 10.02.2027 -
Shaft Brewer Valletta Ativo 79 / 108 40% 1 06.02.2027 -
Timofey Shipunov Ufa Ativo 93 / 100 40% 1 05.02.2027 -
Franklin Sasere Birkirkara Ativo 102 / 102 40% 1 03.02.2027 -
Nikolay Boyarkin Salyut Ativo 87 / 72 40% 1 03.02.2027 -
Ramazan Gadjimuradov Chelyabinsk Ativo 106 / 113 40% 1 02.02.2027 -
Nikita Kireev Dinamo Vologda Ativo 72 / 102 40% 1 02.02.2027 -
Pavel Popov Volna Ativo 68 / 76 40% 3 01.02.2027 -
Robert Murić Floriana Ativo 107 / 118 40% 3 25.01.2027 -
Zurab Gigashvili Samtredia Ativo 63 / 60 58% 1 18.01.2027 -
Artem Shabolin Nosta Ativo 79 / 57 40% 1 29.12.2026 -
Renat Garayev AZAL Ativo 107 / 111 40% 2 28.12.2026 -
Alexandr Yushin Torpedo Moscow Ativo 91 / 105 40% 1 27.12.2026 -
Davit Volkovi Zira Ativo 125 / 113 40% 2 24.12.2026 -
Paolo Yrizar Chernomorets Ativo 104 / 114 40% 5 21.12.2026 -
Jacobo Alcalde SKA Khabarovsk Ativo 88 / 103 40% 1 20.12.2026 -
Diamanka Senghor Mosta Ativo 82 / 84 40% 1 19.12.2026 -
Maxim Kutovoy Salyut Ativo 91 / 66 40% 1 17.12.2026 -
Damir Céter Hamrun Spartans Ativo 93 / 85 40% 3 15.12.2026 -
Shota Shekiladze Dila Ativo 112 / 110 40% 3 13.12.2026 -
Ilja Gruznov Khimik Ativo 91 / 87 40% 1 13.12.2026 -
Kirill Burykin Amkar Ativo 75 / 82 40% 1 08.12.2026 -
Migran Ageyan Ufa Ativo 86 / 78 40% 1 07.12.2026 -
Jere Vrcić Birkirkara Ativo 75 / 83 40% 1 03.12.2026 -
Israel Emmanuel Hamrun Spartans Ativo 70 / 66 40% 2 25.11.2026 -
Denis Rubanov Dinamo Stavropol Ativo 98 / 67 40% 1 25.11.2026 -
Dmitry Lesnikov Volgar Ativo 97 / 93 40% 1 23.11.2026 -
Daniel Udoh Salford City Ativo 110 / 99 40% 1 23.11.2026 -
David Karaev KAMAZ Ativo 92 / 88 40% 2 22.11.2026 -
Louis Appéré Cambridge United Ativo 89 / 106 40% 2 19.11.2026 -
Imran Oulad Omar Dinamo Batumi Ativo 110 / 133 40% 3 18.11.2026 -
Denzel Jubitana Neftchi Ativo 120 / 102 40% 2 18.11.2026 -
Alan Tsaraev Arsenal Tula Ativo 93 / 115 40% 1 17.11.2026 -
Elliot Bonds Fleetwood Town Ativo 98 / 118 40% 1 17.11.2026 -
Javohir Esonqulov Merani Ativo 99 / 109 40% 1 15.11.2026 -
Paul Mbong Floriana Ativo 108 / 116 40% 1 15.11.2026 -
Job Ochieng Real Sociedad Ativo 102 / 98 40% 1 12.11.2026 -
Ľubomír Tupta Neftchi Ativo 109 / 99 40% 1 08.11.2026 -
Alexandr Lomovitskiy Torpedo-BelAZ Ativo 99 / 115 40% 1 03.11.2026 -
Hakeeb Adelakun Doncaster Rovers Ativo 94 / 85 40% 2 02.11.2026 -
Maximiliano Gómez Nacional Ativo 127 / 111 40% 1 02.11.2026 -
Jonathan Okoronkwo Torpedo Moscow Ativo 100 / 109 40% 1 24.10.2026 -
Alassana Jatta Notts County Ativo 94 / 97 40% 1 22.10.2026 -
Elliot Collier Saburtalo Ativo 108 / 87 40% 2 19.10.2026 -
Yegor Kortsov Dinamo Brest Ativo 106 / 90 40% 1 11.10.2026 -
Dmitri Mandrîcenco Dinamo Batumi Ativo 104 / 106 40% 1 11.10.2026 -
Will Davies Fleetwood Town Ativo 105 / 93 40% 1 09.10.2026 -
Sam Nombe Milton Keynes Dons Ativo 106 / 117 40% 1 08.10.2026 -
David Ozoh Derby County Ativo 117 / 128 40% 1 06.10.2026 -
Nikoloz Mali Dila Ativo 106 / 117 40% 1 05.10.2026 -
Tom Pearce Chesterfield Ativo 116 / 119 40% 1 05.10.2026 -
Johnly Yfeko Exeter City Ativo 90 / 106 40% 1 03.10.2026 -
Nika Kalandarishvili Dinamo Batumi Ativo 102 / 80 40% 1 02.10.2026 -
Vagner Gonçalves Nogueira Kolkheti Ativo 112 / 87 40% 1 01.10.2026 -
Paris Psaltis Dinamo Tbilisi Ativo 91 / 81 40% 1 30.09.2026 -
Alex Pattison Walsall Ativo 105 / 87 40% 1 29.09.2026 -
Manprit Sarkaria Austria Wien Ativo 112 / 92 40% 1 29.09.2026 -
Bence Gergényi Lokomotivi Ativo 110 / 89 40% 1 27.09.2026 -
Fede Varela Floriana Ativo 103 / 90 40% 1 26.09.2026 -
Felipe Pires Torpedo Kutaisi Ativo 97 / 115 40% 1 25.09.2026 -
Ibrahim Alhassan Saburtalo Ativo 106 / 93 40% 1 24.09.2026 -
Giorgi Kharaishvili Dinamo Tbilisi Ativo 106 / 107 40% 1 24.09.2026 -
Tedo Kikabidze Dila Ativo 100 / 96 40% 1 23.09.2026 -
Jaïro Riedewald Sheffield United Ativo 139 / 139 40% 1 22.09.2026 -
Jonathan Farías Torpedo Kutaisi Ativo 112 / 101 40% 1 22.09.2026 -
Lewis Richards Crawley Town Ativo 106 / 100 40% 1 16.09.2026 -
Lander Astiazarán Real Sociedad Ativo 112 / 118 40% 1 16.09.2026 -
Welton Júnior Dinamo Tbilisi Ativo 90 / 111 40% 1 14.09.2026 -
Franco Sivetti Gimnasia y Tiro Ativo 111 / 82 40% 1 14.09.2026 -
Francisco Perruzzi Aldosivi Ativo 116 / 118 40% 1 11.09.2026 -
Steven Alfred Torpedo-BelAZ Ativo 109 / 107 40% 1 10.09.2026 -
Alexis Dulón Huracán Ativo 95 / 75 40% 1 08.09.2026 -
Kekuta Manneh Samtredia Ativo 91 / 87 40% 1 07.09.2026 -
Tomás Galván River Plate Ativo 134 / 105 40% 1 07.09.2026 -
Mariano Bracamonte Deportivo Riestra Ativo 138 / 102 40% 1 07.09.2026 -
Matty Stevens AFC Wimbledon Ativo 113 / 94 40% 1 04.09.2026 -
Algassime Bah Dinamo Tbilisi Ativo 101 / 90 40% 1 02.09.2026 -
Charles Vernam Grimsby Town Ativo 118 / 114 40% 2 31.08.2026 -
Agustín Obregón River Plate Ativo 104 / 142 40% 1 24.08.2026 -
Nazareno Roselli Defensa y Justicia Ativo 94 / 137 40% 1 18.08.2026 -
Alex Cochrane Birmingham Ativo 97 / 136 40% 1 13.08.2026 -
Giorgi Todua Lokomotivi Ativo 45 / 51 51% 1 10.08.2026 -
Lewis Gordon Chesterfield Ativo 103 / 96 40% 1 03.08.2026 -
Tomás Fernández Aldosivi Ativo 112 / 132 40% 1 01.08.2026 -